sensor_id;sensor_type;location;lat;lon;timestamp;P1;durP1;ratioP1;P2;durP2;ratioP2
48665;SDS011;34452;50.796;4.994;2023-08-17T00:01:55;7.75;;;2.78;;
48665;SDS011;34452;50.796;4.994;2023-08-17T00:04:21;5.82;;;2.90;;
48665;SDS011;34452;50.796;4.994;2023-08-17T00:06:47;5.20;;;2.30;;
48665;SDS011;34452;50.796;4.994;2023-08-17T00:09:13;4.20;;;2.45;;
48665;SDS011;34452;50.796;4.994;2023-08-17T00:11:39;8.43;;;3.13;;
48665;SDS011;34452;50.796;4.994;2023-08-17T00:14:05;9.25;;;2.38;;
48665;SDS011;34452;50.796;4.994;2023-08-17T00:16:31;6.18;;;2.17;;
48665;SDS011;34452;50.796;4.994;2023-08-17T00:18:57;7.15;;;2.60;;
48665;SDS011;34452;50.796;4.994;2023-08-17T00:21:23;8.07;;;2.47;;
48665;SDS011;34452;50.796;4.994;2023-08-17T00:23:48;9.00;;;3.03;;
48665;SDS011;34452;50.796;4.994;2023-08-17T00:26:14;4.00;;;2.47;;
48665;SDS011;34452;50.796;4.994;2023-08-17T00:28:40;4.35;;;2.63;;
48665;SDS011;34452;50.796;4.994;2023-08-17T00:31:06;5.35;;;2.78;;
48665;SDS011;34452;50.796;4.994;2023-08-17T00:33:31;5.72;;;3.03;;
48665;SDS011;34452;50.796;4.994;2023-08-17T00:35:57;5.57;;;2.45;;
48665;SDS011;34452;50.796;4.994;2023-08-17T00:38:23;4.40;;;2.47;;
48665;SDS011;34452;50.796;4.994;2023-08-17T00:40:49;2.83;;;2.17;;
48665;SDS011;34452;50.796;4.994;2023-08-17T00:43:15;6.03;;;2.40;;
48665;SDS011;34452;50.796;4.994;2023-08-17T00:45:41;3.20;;;2.25;;
48665;SDS011;34452;50.796;4.994;2023-08-17T00:48:08;11.68;;;2.75;;
48665;SDS011;34452;50.796;4.994;2023-08-17T00:50:34;4.18;;;2.42;;
48665;SDS011;34452;50.796;4.994;2023-08-17T00:53:01;4.68;;;2.45;;
48665;SDS011;34452;50.796;4.994;2023-08-17T00:55:28;4.82;;;2.63;;
48665;SDS011;34452;50.796;4.994;2023-08-17T00:57:55;4.75;;;2.65;;
48665;SDS011;34452;50.796;4.994;2023-08-17T01:00:22;4.18;;;2.20;;
48665;SDS011;34452;50.796;4.994;2023-08-17T01:02:50;4.55;;;2.35;;
48665;SDS011;34452;50.796;4.994;2023-08-17T01:05:16;4.53;;;1.95;;
48665;SDS011;34452;50.796;4.994;2023-08-17T01:07:42;8.38;;;2.50;;
48665;SDS011;34452;50.796;4.994;2023-08-17T01:10:08;4.10;;;2.47;;
48665;SDS011;34452;50.796;4.994;2023-08-17T01:15:31;4.13;;;2.17;;
48665;SDS011;34452;50.796;4.994;2023-08-17T01:20:58;4.30;;;2.20;;
48665;SDS011;34452;50.796;4.994;2023-08-17T01:23:25;6.35;;;2.78;;
48665;SDS011;34452;50.796;4.994;2023-08-17T01:28:18;10.05;;;2.10;;
48665;SDS011;34452;50.796;4.994;2023-08-17T01:30:47;7.60;;;2.47;;
48665;SDS011;34452;50.796;4.994;2023-08-17T01:36:11;2.88;;;1.98;;
48665;SDS011;34452;50.796;4.994;2023-08-17T01:38:52;3.35;;;1.98;;
48665;SDS011;34452;50.796;4.994;2023-08-17T01:41:20;9.45;;;2.13;;
48665;SDS011;34452;50.796;4.994;2023-08-17T01:43:48;8.50;;;2.33;;
48665;SDS011;34452;50.796;4.994;2023-08-17T01:46:15;12.05;;;3.28;;
48665;SDS011;34452;50.796;4.994;2023-08-17T01:48:42;4.22;;;2.08;;
48665;SDS011;34452;50.796;4.994;2023-08-17T01:51:11;11.35;;;2.50;;
48665;SDS011;34452;50.796;4.994;2023-08-17T01:53:41;5.82;;;2.13;;
48665;SDS011;34452;50.796;4.994;2023-08-17T01:56:07;6.90;;;1.80;;
48665;SDS011;34452;50.796;4.994;2023-08-17T01:58:32;8.32;;;2.22;;
48665;SDS011;34452;50.796;4.994;2023-08-17T02:00:58;8.00;;;2.13;;
48665;SDS011;34452;50.796;4.994;2023-08-17T02:03:24;6.47;;;2.10;;
48665;SDS011;34452;50.796;4.994;2023-08-17T02:05:50;2.65;;;1.75;;
48665;SDS011;34452;50.796;4.994;2023-08-17T02:08:15;3.92;;;2.10;;
48665;SDS011;34452;50.796;4.994;2023-08-17T02:10:41;5.07;;;2.42;;
48665;SDS011;34452;50.796;4.994;2023-08-17T02:13:07;9.60;;;1.70;;
48665;SDS011;34452;50.796;4.994;2023-08-17T02:18:03;3.35;;;1.90;;
48665;SDS011;34452;50.796;4.994;2023-08-17T02:20:29;10.90;;;2.58;;
48665;SDS011;34452;50.796;4.994;2023-08-17T02:22:54;4.30;;;1.90;;
48665;SDS011;34452;50.796;4.994;2023-08-17T02:25:20;3.25;;;1.80;;
48665;SDS011;34452;50.796;4.994;2023-08-17T02:27:46;6.85;;;1.75;;
48665;SDS011;34452;50.796;4.994;2023-08-17T02:30:11;7.10;;;1.95;;
48665;SDS011;34452;50.796;4.994;2023-08-17T02:32:38;3.83;;;1.83;;
48665;SDS011;34452;50.796;4.994;2023-08-17T02:35:04;11.10;;;2.08;;
48665;SDS011;34452;50.796;4.994;2023-08-17T02:37:30;5.15;;;2.00;;
48665;SDS011;34452;50.796;4.994;2023-08-17T02:39:56;3.55;;;1.88;;
48665;SDS011;34452;50.796;4.994;2023-08-17T02:42:22;7.50;;;2.05;;
48665;SDS011;34452;50.796;4.994;2023-08-17T02:44:48;3.85;;;2.05;;
48665;SDS011;34452;50.796;4.994;2023-08-17T02:47:14;9.65;;;2.70;;
48665;SDS011;34452;50.796;4.994;2023-08-17T02:49:39;5.05;;;2.20;;
48665;SDS011;34452;50.796;4.994;2023-08-17T02:52:05;8.88;;;2.13;;
48665;SDS011;34452;50.796;4.994;2023-08-17T02:54:31;4.63;;;2.17;;
48665;SDS011;34452;50.796;4.994;2023-08-17T02:56:57;3.92;;;2.00;;
48665;SDS011;34452;50.796;4.994;2023-08-17T02:59:24;3.95;;;2.20;;
48665;SDS011;34452;50.796;4.994;2023-08-17T03:01:49;7.30;;;2.20;;
48665;SDS011;34452;50.796;4.994;2023-08-17T03:04:15;11.05;;;3.05;;
48665;SDS011;34452;50.796;4.994;2023-08-17T03:06:41;6.30;;;1.98;;
48665;SDS011;34452;50.796;4.994;2023-08-17T03:09:07;4.60;;;1.95;;
48665;SDS011;34452;50.796;4.994;2023-08-17T03:11:32;3.35;;;2.03;;
48665;SDS011;34452;50.796;4.994;2023-08-17T03:13:58;4.30;;;2.15;;
48665;SDS011;34452;50.796;4.994;2023-08-17T03:16:25;5.30;;;2.28;;
48665;SDS011;34452;50.796;4.994;2023-08-17T03:18:52;5.88;;;2.17;;
48665;SDS011;34452;50.796;4.994;2023-08-17T03:21:18;5.63;;;2.30;;
48665;SDS011;34452;50.796;4.994;2023-08-17T03:23:44;8.88;;;2.38;;
48665;SDS011;34452;50.796;4.994;2023-08-17T03:26:10;5.43;;;2.00;;
48665;SDS011;34452;50.796;4.994;2023-08-17T03:28:36;5.85;;;3.10;;
48665;SDS011;34452;50.796;4.994;2023-08-17T03:31:02;3.60;;;1.83;;
48665;SDS011;34452;50.796;4.994;2023-08-17T03:33:28;3.60;;;1.63;;
48665;SDS011;34452;50.796;4.994;2023-08-17T03:35:54;5.00;;;2.10;;
48665;SDS011;34452;50.796;4.994;2023-08-17T03:38:20;4.28;;;2.03;;
48665;SDS011;34452;50.796;4.994;2023-08-17T03:40:46;6.68;;;1.98;;
48665;SDS011;34452;50.796;4.994;2023-08-17T03:43:13;4.45;;;2.65;;
48665;SDS011;34452;50.796;4.994;2023-08-17T03:48:06;3.35;;;1.92;;
48665;SDS011;34452;50.796;4.994;2023-08-17T03:50:32;5.25;;;2.33;;
48665;SDS011;34452;50.796;4.994;2023-08-17T03:52:57;4.50;;;2.25;;
48665;SDS011;34452;50.796;4.994;2023-08-17T03:55:23;4.20;;;2.30;;
48665;SDS011;34452;50.796;4.994;2023-08-17T03:57:49;7.97;;;2.22;;
48665;SDS011;34452;50.796;4.994;2023-08-17T04:00:15;3.58;;;2.05;;
48665;SDS011;34452;50.796;4.994;2023-08-17T04:02:40;5.65;;;2.05;;
48665;SDS011;34452;50.796;4.994;2023-08-17T04:05:06;4.07;;;1.90;;
48665;SDS011;34452;50.796;4.994;2023-08-17T04:07:32;5.68;;;2.28;;
48665;SDS011;34452;50.796;4.994;2023-08-17T04:09:58;3.67;;;2.25;;
48665;SDS011;34452;50.796;4.994;2023-08-17T04:12:23;3.85;;;2.15;;
48665;SDS011;34452;50.796;4.994;2023-08-17T04:14:49;5.03;;;2.35;;
48665;SDS011;34452;50.796;4.994;2023-08-17T04:17:15;2.28;;;1.80;;
48665;SDS011;34452;50.796;4.994;2023-08-17T04:19:41;4.90;;;2.55;;
48665;SDS011;34452;50.796;4.994;2023-08-17T04:22:06;3.60;;;2.38;;
48665;SDS011;34452;50.796;4.994;2023-08-17T04:24:32;8.63;;;2.33;;
48665;SDS011;34452;50.796;4.994;2023-08-17T04:26:58;7.18;;;2.55;;
48665;SDS011;34452;50.796;4.994;2023-08-17T04:29:24;10.15;;;2.33;;
48665;SDS011;34452;50.796;4.994;2023-08-17T04:31:49;4.75;;;2.40;;
48665;SDS011;34452;50.796;4.994;2023-08-17T04:34:15;4.50;;;2.45;;
48665;SDS011;34452;50.796;4.994;2023-08-17T04:36:41;8.70;;;2.35;;
48665;SDS011;34452;50.796;4.994;2023-08-17T04:39:06;6.75;;;2.47;;
48665;SDS011;34452;50.796;4.994;2023-08-17T04:41:34;6.63;;;2.67;;
48665;SDS011;34452;50.796;4.994;2023-08-17T04:44:00;7.85;;;2.00;;
48665;SDS011;34452;50.796;4.994;2023-08-17T04:46:25;15.48;;;2.80;;
48665;SDS011;34452;50.796;4.994;2023-08-17T04:48:51;6.47;;;2.30;;
48665;SDS011;34452;50.796;4.994;2023-08-17T04:51:17;6.10;;;2.25;;
48665;SDS011;34452;50.796;4.994;2023-08-17T04:53:43;4.25;;;2.10;;
48665;SDS011;34452;50.796;4.994;2023-08-17T04:56:09;3.67;;;2.25;;
48665;SDS011;34452;50.796;4.994;2023-08-17T04:58:35;6.22;;;2.28;;
48665;SDS011;34452;50.796;4.994;2023-08-17T05:01:00;6.43;;;2.00;;
48665;SDS011;34452;50.796;4.994;2023-08-17T05:03:26;5.28;;;2.15;;
48665;SDS011;34452;50.796;4.994;2023-08-17T05:05:52;6.53;;;2.22;;
48665;SDS011;34452;50.796;4.994;2023-08-17T05:08:18;7.95;;;2.40;;
48665;SDS011;34452;50.796;4.994;2023-08-17T05:13:10;8.77;;;2.53;;
48665;SDS011;34452;50.796;4.994;2023-08-17T05:15:35;8.35;;;2.17;;
48665;SDS011;34452;50.796;4.994;2023-08-17T05:18:01;9.40;;;2.38;;
48665;SDS011;34452;50.796;4.994;2023-08-17T05:20:27;7.22;;;2.70;;
48665;SDS011;34452;50.796;4.994;2023-08-17T05:22:53;11.88;;;2.88;;
48665;SDS011;34452;50.796;4.994;2023-08-17T05:25:18;6.28;;;2.50;;
48665;SDS011;34452;50.796;4.994;2023-08-17T05:27:44;7.72;;;2.25;;
48665;SDS011;34452;50.796;4.994;2023-08-17T05:30:10;13.35;;;3.20;;
48665;SDS011;34452;50.796;4.994;2023-08-17T05:32:36;10.68;;;2.80;;
48665;SDS011;34452;50.796;4.994;2023-08-17T05:35:02;7.78;;;3.10;;
48665;SDS011;34452;50.796;4.994;2023-08-17T05:37:28;11.27;;;3.63;;
48665;SDS011;34452;50.796;4.994;2023-08-17T05:39:53;9.38;;;3.88;;
48665;SDS011;34452;50.796;4.994;2023-08-17T05:42:19;7.88;;;3.28;;
48665;SDS011;34452;50.796;4.994;2023-08-17T05:44:45;8.77;;;3.67;;
48665;SDS011;34452;50.796;4.994;2023-08-17T05:47:10;13.65;;;3.47;;
48665;SDS011;34452;50.796;4.994;2023-08-17T05:49:38;11.18;;;3.28;;
48665;SDS011;34452;50.796;4.994;2023-08-17T05:52:03;6.40;;;3.13;;
48665;SDS011;34452;50.796;4.994;2023-08-17T05:54:29;11.10;;;3.20;;
48665;SDS011;34452;50.796;4.994;2023-08-17T05:56:55;6.63;;;3.70;;
48665;SDS011;34452;50.796;4.994;2023-08-17T05:59:21;11.38;;;3.17;;
48665;SDS011;34452;50.796;4.994;2023-08-17T06:01:47;14.52;;;4.97;;
48665;SDS011;34452;50.796;4.994;2023-08-17T06:04:12;6.22;;;2.85;;
48665;SDS011;34452;50.796;4.994;2023-08-17T06:06:38;9.27;;;3.33;;
48665;SDS011;34452;50.796;4.994;2023-08-17T06:09:04;7.68;;;4.20;;
48665;SDS011;34452;50.796;4.994;2023-08-17T06:11:29;6.90;;;4.00;;
48665;SDS011;34452;50.796;4.994;2023-08-17T06:13:55;9.70;;;4.65;;
48665;SDS011;34452;50.796;4.994;2023-08-17T06:16:21;13.98;;;5.80;;
48665;SDS011;34452;50.796;4.994;2023-08-17T06:18:47;17.05;;;6.32;;
48665;SDS011;34452;50.796;4.994;2023-08-17T06:21:13;15.43;;;6.18;;
48665;SDS011;34452;50.796;4.994;2023-08-17T06:23:38;13.07;;;6.05;;
48665;SDS011;34452;50.796;4.994;2023-08-17T06:26:04;10.65;;;5.25;;
48665;SDS011;34452;50.796;4.994;2023-08-17T06:28:30;10.38;;;4.50;;
48665;SDS011;34452;50.796;4.994;2023-08-17T06:30:55;12.90;;;4.43;;
48665;SDS011;34452;50.796;4.994;2023-08-17T06:33:21;7.85;;;4.63;;
48665;SDS011;34452;50.796;4.994;2023-08-17T06:35:48;12.00;;;4.13;;
48665;SDS011;34452;50.796;4.994;2023-08-17T06:40:39;9.45;;;3.88;;
48665;SDS011;34452;50.796;4.994;2023-08-17T06:43:05;18.10;;;4.03;;
48665;SDS011;34452;50.796;4.994;2023-08-17T06:45:31;13.43;;;4.30;;
48665;SDS011;34452;50.796;4.994;2023-08-17T06:47:57;8.30;;;3.78;;
48665;SDS011;34452;50.796;4.994;2023-08-17T06:50:23;21.27;;;5.60;;
48665;SDS011;34452;50.796;4.994;2023-08-17T06:52:51;17.08;;;5.45;;
48665;SDS011;34452;50.796;4.994;2023-08-17T06:55:17;9.15;;;4.05;;
48665;SDS011;34452;50.796;4.994;2023-08-17T06:57:43;13.52;;;4.65;;
48665;SDS011;34452;50.796;4.994;2023-08-17T07:00:09;10.77;;;4.53;;
48665;SDS011;34452;50.796;4.994;2023-08-17T07:02:37;18.55;;;5.47;;
48665;SDS011;34452;50.796;4.994;2023-08-17T07:05:03;11.10;;;5.22;;
48665;SDS011;34452;50.796;4.994;2023-08-17T07:07:29;11.35;;;4.85;;
48665;SDS011;34452;50.796;4.994;2023-08-17T07:09:57;12.20;;;6.05;;
48665;SDS011;34452;50.796;4.994;2023-08-17T07:12:23;16.08;;;4.75;;
48665;SDS011;34452;50.796;4.994;2023-08-17T07:14:49;10.75;;;5.50;;
48665;SDS011;34452;50.796;4.994;2023-08-17T07:17:15;10.30;;;5.35;;
48665;SDS011;34452;50.796;4.994;2023-08-17T07:19:41;14.18;;;6.25;;
48665;SDS011;34452;50.796;4.994;2023-08-17T07:22:07;17.55;;;6.70;;
48665;SDS011;34452;50.796;4.994;2023-08-17T07:24:32;21.92;;;7.93;;
48665;SDS011;34452;50.796;4.994;2023-08-17T07:26:58;21.05;;;7.57;;
48665;SDS011;34452;50.796;4.994;2023-08-17T07:29:24;20.50;;;7.65;;
48665;SDS011;34452;50.796;4.994;2023-08-17T07:31:50;21.30;;;7.07;;
48665;SDS011;34452;50.796;4.994;2023-08-17T07:34:16;20.10;;;8.05;;
48665;SDS011;34452;50.796;4.994;2023-08-17T07:36:42;20.63;;;7.95;;
48665;SDS011;34452;50.796;4.994;2023-08-17T07:39:08;20.30;;;8.48;;
48665;SDS011;34452;50.796;4.994;2023-08-17T07:41:33;22.35;;;7.72;;
48665;SDS011;34452;50.796;4.994;2023-08-17T07:43:59;22.67;;;7.68;;
48665;SDS011;34452;50.796;4.994;2023-08-17T07:46:25;17.77;;;7.80;;
48665;SDS011;34452;50.796;4.994;2023-08-17T07:48:51;24.15;;;8.07;;
48665;SDS011;34452;50.796;4.994;2023-08-17T07:51:16;19.15;;;7.57;;
48665;SDS011;34452;50.796;4.994;2023-08-17T07:53:42;21.00;;;7.25;;
48665;SDS011;34452;50.796;4.994;2023-08-17T07:56:08;17.92;;;6.80;;
48665;SDS011;34452;50.796;4.994;2023-08-17T07:58:33;20.38;;;7.38;;
48665;SDS011;34452;50.796;4.994;2023-08-17T08:00:59;26.88;;;7.60;;
48665;SDS011;34452;50.796;4.994;2023-08-17T08:03:25;15.50;;;7.00;;
48665;SDS011;34452;50.796;4.994;2023-08-17T08:05:51;19.38;;;7.75;;
48665;SDS011;34452;50.796;4.994;2023-08-17T08:10:45;17.90;;;7.50;;
48665;SDS011;34452;50.796;4.994;2023-08-17T08:13:10;18.13;;;6.82;;
48665;SDS011;34452;50.796;4.994;2023-08-17T08:15:36;18.88;;;7.80;;
48665;SDS011;34452;50.796;4.994;2023-08-17T08:18:02;19.50;;;7.68;;
48665;SDS011;34452;50.796;4.994;2023-08-17T08:20:28;17.90;;;7.60;;
48665;SDS011;34452;50.796;4.994;2023-08-17T08:22:54;22.65;;;8.90;;
48665;SDS011;34452;50.796;4.994;2023-08-17T08:25:20;22.15;;;8.13;;
48665;SDS011;34452;50.796;4.994;2023-08-17T08:27:45;23.02;;;8.88;;
48665;SDS011;34452;50.796;4.994;2023-08-17T08:30:11;30.58;;;9.85;;
48665;SDS011;34452;50.796;4.994;2023-08-17T08:32:37;29.65;;;11.35;;
48665;SDS011;34452;50.796;4.994;2023-08-17T08:35:03;21.85;;;9.77;;
48665;SDS011;34452;50.796;4.994;2023-08-17T08:37:30;24.00;;;10.15;;
48665;SDS011;34452;50.796;4.994;2023-08-17T08:39:55;23.02;;;9.95;;
48665;SDS011;34452;50.796;4.994;2023-08-17T08:42:22;28.85;;;11.55;;
48665;SDS011;34452;50.796;4.994;2023-08-17T08:44:49;36.13;;;13.07;;
48665;SDS011;34452;50.796;4.994;2023-08-17T08:47:16;31.95;;;13.30;;
48665;SDS011;34452;50.796;4.994;2023-08-17T08:55:18;23.48;;;12.25;;
48665;SDS011;34452;50.796;4.994;2023-08-17T08:57:46;24.95;;;12.45;;
48665;SDS011;34452;50.796;4.994;2023-08-17T09:00:14;24.33;;;12.52;;
48665;SDS011;34452;50.796;4.994;2023-08-17T09:02:42;22.45;;;12.07;;
48665;SDS011;34452;50.796;4.994;2023-08-17T09:05:09;23.10;;;11.90;;
48665;SDS011;34452;50.796;4.994;2023-08-17T09:07:36;29.77;;;12.70;;
48665;SDS011;34452;50.796;4.994;2023-08-17T09:10:04;29.60;;;13.38;;
48665;SDS011;34452;50.796;4.994;2023-08-17T09:12:30;28.63;;;13.18;;
48665;SDS011;34452;50.796;4.994;2023-08-17T09:14:56;27.58;;;13.05;;
48665;SDS011;34452;50.796;4.994;2023-08-17T09:20:06;30.20;;;12.98;;
48665;SDS011;34452;50.796;4.994;2023-08-17T09:25:21;21.98;;;12.25;;
48665;SDS011;34452;50.796;4.994;2023-08-17T09:27:48;23.52;;;12.82;;
48665;SDS011;34452;50.796;4.994;2023-08-17T09:30:14;29.45;;;14.27;;
48665;SDS011;34452;50.796;4.994;2023-08-17T09:32:40;30.20;;;14.80;;
48665;SDS011;34452;50.796;4.994;2023-08-17T09:35:06;33.75;;;14.85;;
48665;SDS011;34452;50.796;4.994;2023-08-17T09:39:59;30.30;;;14.50;;
48665;SDS011;34452;50.796;4.994;2023-08-17T09:42:25;29.73;;;13.25;;
48665;SDS011;34452;50.796;4.994;2023-08-17T09:44:52;26.65;;;12.05;;
48665;SDS011;34452;50.796;4.994;2023-08-17T09:47:18;27.85;;;13.38;;
48665;SDS011;34452;50.796;4.994;2023-08-17T09:52:30;31.55;;;13.82;;
48665;SDS011;34452;50.796;4.994;2023-08-17T09:54:56;24.25;;;14.55;;
48665;SDS011;34452;50.796;4.994;2023-08-17T09:57:28;23.08;;;13.48;;
48665;SDS011;34452;50.796;4.994;2023-08-17T09:59:54;27.95;;;13.63;;
48665;SDS011;34452;50.796;4.994;2023-08-17T10:02:22;35.40;;;13.55;;
48665;SDS011;34452;50.796;4.994;2023-08-17T10:04:51;26.08;;;12.70;;
48665;SDS011;34452;50.796;4.994;2023-08-17T10:07:18;26.70;;;13.35;;
48665;SDS011;34452;50.796;4.994;2023-08-17T10:09:47;30.83;;;12.32;;
48665;SDS011;34452;50.796;4.994;2023-08-17T10:12:22;21.98;;;11.65;;
48665;SDS011;34452;50.796;4.994;2023-08-17T10:14:55;25.75;;;13.38;;
48665;SDS011;34452;50.796;4.994;2023-08-17T10:17:29;28.30;;;13.80;;
48665;SDS011;34452;50.796;4.994;2023-08-17T10:20:00;28.38;;;13.32;;
48665;SDS011;34452;50.796;4.994;2023-08-17T10:24:58;26.98;;;13.95;;
48665;SDS011;34452;50.796;4.994;2023-08-17T10:27:25;28.83;;;14.10;;
48665;SDS011;34452;50.796;4.994;2023-08-17T10:29:52;25.50;;;13.63;;
48665;SDS011;34452;50.796;4.994;2023-08-17T10:34:46;24.75;;;13.30;;
48665;SDS011;34452;50.796;4.994;2023-08-17T10:37:12;30.05;;;14.48;;
48665;SDS011;34452;50.796;4.994;2023-08-17T10:39:44;26.55;;;14.77;;
48665;SDS011;34452;50.796;4.994;2023-08-17T10:42:12;23.08;;;13.40;;
48665;SDS011;34452;50.796;4.994;2023-08-17T10:47:19;29.73;;;14.82;;
48665;SDS011;34452;50.796;4.994;2023-08-17T10:50:05;29.90;;;14.55;;
48665;SDS011;34452;50.796;4.994;2023-08-17T10:52:45;22.17;;;13.98;;
48665;SDS011;34452;50.796;4.994;2023-08-17T10:55:14;22.75;;;13.75;;
48665;SDS011;34452;50.796;4.994;2023-08-17T10:57:41;27.52;;;13.63;;
48665;SDS011;34452;50.796;4.994;2023-08-17T11:02:36;20.17;;;13.55;;
48665;SDS011;34452;50.796;4.994;2023-08-17T11:05:02;22.75;;;14.38;;
48665;SDS011;34452;50.796;4.994;2023-08-17T11:07:38;21.95;;;13.55;;
48665;SDS011;34452;50.796;4.994;2023-08-17T11:10:10;18.87;;;12.07;;
48665;SDS011;34452;50.796;4.994;2023-08-17T11:12:55;25.85;;;13.50;;
48665;SDS011;34452;50.796;4.994;2023-08-17T11:15:25;21.95;;;14.18;;
48665;SDS011;34452;50.796;4.994;2023-08-17T11:17:51;25.20;;;13.85;;
48665;SDS011;34452;50.796;4.994;2023-08-17T11:20:17;21.08;;;12.63;;
48665;SDS011;34452;50.796;4.994;2023-08-17T11:22:44;17.98;;;12.80;;
48665;SDS011;34452;50.796;4.994;2023-08-17T11:25:11;23.15;;;13.43;;
48665;SDS011;34452;50.796;4.994;2023-08-17T11:30:03;16.77;;;11.63;;
48665;SDS011;34452;50.796;4.994;2023-08-17T11:32:30;17.25;;;12.05;;
48665;SDS011;34452;50.796;4.994;2023-08-17T11:34:55;18.05;;;12.10;;
48665;SDS011;34452;50.796;4.994;2023-08-17T11:37:21;19.17;;;13.73;;
48665;SDS011;34452;50.796;4.994;2023-08-17T11:39:47;21.17;;;13.73;;
48665;SDS011;34452;50.796;4.994;2023-08-17T11:42:12;15.32;;;11.93;;
48665;SDS011;34452;50.796;4.994;2023-08-17T11:44:38;18.27;;;13.65;;
48665;SDS011;34452;50.796;4.994;2023-08-17T11:47:05;21.02;;;14.02;;
48665;SDS011;34452;50.796;4.994;2023-08-17T11:49:32;18.75;;;13.18;;
48665;SDS011;34452;50.796;4.994;2023-08-17T11:51:57;26.05;;;16.45;;
48665;SDS011;34452;50.796;4.994;2023-08-17T11:54:23;23.88;;;14.52;;
48665;SDS011;34452;50.796;4.994;2023-08-17T11:56:49;20.67;;;14.23;;
48665;SDS011;34452;50.796;4.994;2023-08-17T11:59:15;21.67;;;14.52;;
48665;SDS011;34452;50.796;4.994;2023-08-17T12:01:43;17.85;;;12.80;;
48665;SDS011;34452;50.796;4.994;2023-08-17T12:06:36;25.85;;;14.18;;
48665;SDS011;34452;50.796;4.994;2023-08-17T12:09:09;25.27;;;15.55;;
48665;SDS011;34452;50.796;4.994;2023-08-17T12:11:35;27.05;;;16.85;;
48665;SDS011;34452;50.796;4.994;2023-08-17T12:14:07;24.85;;;16.15;;
48665;SDS011;34452;50.796;4.994;2023-08-17T12:16:44;24.77;;;16.25;;
48665;SDS011;34452;50.796;4.994;2023-08-17T12:19:12;24.25;;;15.68;;
48665;SDS011;34452;50.796;4.994;2023-08-17T12:21:41;24.10;;;16.00;;
48665;SDS011;34452;50.796;4.994;2023-08-17T12:24:09;26.10;;;17.33;;
48665;SDS011;34452;50.796;4.994;2023-08-17T12:26:40;27.13;;;16.92;;
48665;SDS011;34452;50.796;4.994;2023-08-17T12:29:08;27.67;;;16.80;;
48665;SDS011;34452;50.796;4.994;2023-08-17T12:31:34;28.15;;;18.02;;
48665;SDS011;34452;50.796;4.994;2023-08-17T12:34:00;27.33;;;16.60;;
48665;SDS011;34452;50.796;4.994;2023-08-17T12:36:25;33.40;;;18.02;;
48665;SDS011;34452;50.796;4.994;2023-08-17T12:38:51;26.38;;;16.60;;
48665;SDS011;34452;50.796;4.994;2023-08-17T12:41:17;35.10;;;17.20;;
48665;SDS011;34452;50.796;4.994;2023-08-17T12:43:43;32.30;;;18.05;;
48665;SDS011;34452;50.796;4.994;2023-08-17T12:46:09;37.10;;;17.15;;
48665;SDS011;34452;50.796;4.994;2023-08-17T12:48:36;27.55;;;16.48;;
48665;SDS011;34452;50.796;4.994;2023-08-17T12:51:02;32.28;;;16.67;;
48665;SDS011;34452;50.796;4.994;2023-08-17T12:55:53;36.63;;;18.50;;
48665;SDS011;34452;50.796;4.994;2023-08-17T12:58:19;24.85;;;14.73;;
48665;SDS011;34452;50.796;4.994;2023-08-17T13:00:45;25.60;;;14.80;;
48665;SDS011;34452;50.796;4.994;2023-08-17T13:03:11;28.70;;;14.40;;
48665;SDS011;34452;50.796;4.994;2023-08-17T13:05:36;27.33;;;14.52;;
48665;SDS011;34452;50.796;4.994;2023-08-17T13:08:04;24.77;;;15.73;;
48665;SDS011;34452;50.796;4.994;2023-08-17T13:10:30;25.45;;;15.85;;
48665;SDS011;34452;50.796;4.994;2023-08-17T13:12:56;29.15;;;15.05;;
48665;SDS011;34452;50.796;4.994;2023-08-17T13:15:24;30.48;;;16.08;;
48665;SDS011;34452;50.796;4.994;2023-08-17T13:17:50;36.92;;;18.02;;
48665;SDS011;34452;50.796;4.994;2023-08-17T13:20:15;31.98;;;17.75;;
48665;SDS011;34452;50.796;4.994;2023-08-17T13:22:41;29.23;;;17.20;;
48665;SDS011;34452;50.796;4.994;2023-08-17T13:25:07;36.03;;;18.55;;
48665;SDS011;34452;50.796;4.994;2023-08-17T13:27:33;32.80;;;17.48;;
48665;SDS011;34452;50.796;4.994;2023-08-17T13:29:59;32.88;;;19.00;;
48665;SDS011;34452;50.796;4.994;2023-08-17T13:32:26;32.42;;;18.38;;
48665;SDS011;34452;50.796;4.994;2023-08-17T13:37:18;29.83;;;18.13;;
48665;SDS011;34452;50.796;4.994;2023-08-17T13:42:10;28.77;;;17.98;;
48665;SDS011;34452;50.796;4.994;2023-08-17T13:44:36;34.83;;;19.00;;
48665;SDS011;34452;50.796;4.994;2023-08-17T13:49:28;34.50;;;17.17;;
48665;SDS011;34452;50.796;4.994;2023-08-17T13:51:54;32.75;;;17.80;;
48665;SDS011;34452;50.796;4.994;2023-08-17T13:54:21;32.03;;;18.58;;
48665;SDS011;34452;50.796;4.994;2023-08-17T13:56:47;30.20;;;17.13;;
48665;SDS011;34452;50.796;4.994;2023-08-17T13:59:13;33.42;;;16.58;;
48665;SDS011;34452;50.796;4.994;2023-08-17T14:01:39;27.60;;;17.05;;
48665;SDS011;34452;50.796;4.994;2023-08-17T14:04:05;33.17;;;18.35;;
48665;SDS011;34452;50.796;4.994;2023-08-17T14:06:36;32.30;;;17.58;;
48665;SDS011;34452;50.796;4.994;2023-08-17T14:11:28;27.35;;;16.60;;
48665;SDS011;34452;50.796;4.994;2023-08-17T14:13:54;32.42;;;17.52;;
48665;SDS011;34452;50.796;4.994;2023-08-17T14:16:20;28.27;;;17.05;;
48665;SDS011;34452;50.796;4.994;2023-08-17T14:18:45;30.15;;;16.88;;
48665;SDS011;34452;50.796;4.994;2023-08-17T14:21:11;30.33;;;18.25;;
48665;SDS011;34452;50.796;4.994;2023-08-17T14:23:37;31.77;;;16.95;;
48665;SDS011;34452;50.796;4.994;2023-08-17T14:26:04;34.35;;;17.58;;
48665;SDS011;34452;50.796;4.994;2023-08-17T14:28:30;34.80;;;18.30;;
48665;SDS011;34452;50.796;4.994;2023-08-17T14:30:55;33.13;;;18.40;;
48665;SDS011;34452;50.796;4.994;2023-08-17T14:33:21;31.20;;;18.25;;
48665;SDS011;34452;50.796;4.994;2023-08-17T14:35:47;32.40;;;18.38;;
48665;SDS011;34452;50.796;4.994;2023-08-17T14:38:13;27.75;;;17.95;;
48665;SDS011;34452;50.796;4.994;2023-08-17T14:40:41;29.48;;;17.02;;
48665;SDS011;34452;50.796;4.994;2023-08-17T14:43:09;32.28;;;16.35;;
48665;SDS011;34452;50.796;4.994;2023-08-17T14:45:36;31.25;;;17.20;;
48665;SDS011;34452;50.796;4.994;2023-08-17T14:48:03;31.33;;;17.77;;
48665;SDS011;34452;50.796;4.994;2023-08-17T14:50:30;33.75;;;16.88;;
48665;SDS011;34452;50.796;4.994;2023-08-17T14:52:55;25.77;;;15.57;;
48665;SDS011;34452;50.796;4.994;2023-08-17T14:55:21;29.60;;;17.60;;
48665;SDS011;34452;50.796;4.994;2023-08-17T14:57:47;29.15;;;16.48;;
48665;SDS011;34452;50.796;4.994;2023-08-17T15:00:12;26.65;;;16.58;;
48665;SDS011;34452;50.796;4.994;2023-08-17T15:02:38;34.05;;;17.02;;
48665;SDS011;34452;50.796;4.994;2023-08-17T15:05:05;26.67;;;15.55;;
48665;SDS011;34452;50.796;4.994;2023-08-17T15:07:31;25.75;;;14.85;;
48665;SDS011;34452;50.796;4.994;2023-08-17T15:09:57;38.22;;;14.52;;
48665;SDS011;34452;50.796;4.994;2023-08-17T15:12:23;33.40;;;15.18;;
48665;SDS011;34452;50.796;4.994;2023-08-17T15:14:48;32.15;;;15.07;;
48665;SDS011;34452;50.796;4.994;2023-08-17T15:17:14;22.95;;;14.07;;
48665;SDS011;34452;50.796;4.994;2023-08-17T15:19:40;24.88;;;14.88;;
48665;SDS011;34452;50.796;4.994;2023-08-17T15:22:05;27.50;;;14.70;;
48665;SDS011;34452;50.796;4.994;2023-08-17T15:24:31;32.33;;;17.60;;
48665;SDS011;34452;50.796;4.994;2023-08-17T15:26:57;24.13;;;15.23;;
48665;SDS011;34452;50.796;4.994;2023-08-17T15:29:23;25.83;;;14.77;;
48665;SDS011;34452;50.796;4.994;2023-08-17T15:31:48;22.50;;;13.73;;
48665;SDS011;34452;50.796;4.994;2023-08-17T15:34:14;25.60;;;14.20;;
48665;SDS011;34452;50.796;4.994;2023-08-17T15:36:40;24.15;;;13.63;;